Time;durP1;ratioP1;P1;durP2;ratioP2;P2;SDS_P1;SDS_P2;PMS_P1;PMS_P2;Temp;Humidity;BMP_temperature;BMP_pressure;BME280_temperature;BME280_humidity;BME280_pressure;Samples;Min_cycle;Max_cycle;Signal;HPM_P1;HPM_P2
2022/03/25 00:00:05;;;;;;;53.25;30.33;;;;;;;;;;4999206;28;92760;-73
2022/03/25 00:02:38;;;;;;;54.30;29.25;;;;;;;;;;4994260;28;92197;-74
2022/03/25 00:05:05;;;;;;;52.75;29.67;;;;;;;;;;4994939;28;94704;-74
2022/03/25 00:07:32;;;;;;;52.67;28.67;;;;;;;;;;4996054;28;93730;-74
2022/03/25 00:09:59;;;;;;;55.17;29.05;;;;;;;;;;4996190;28;92251;-74
2022/03/25 00:12:26;;;;;;;48.45;28.08;;;;;;;;;;4996079;28;92364;-74
2022/03/25 00:14:52;;;;;;;49.20;28.00;;;;;;;;;;5011949;28;93671;-74
2022/03/25 00:17:19;;;;;;;49.75;28.50;;;;;;;;;;4996466;28;92302;-74
2022/03/25 00:19:46;;;;;;;49.65;29.92;;;;;;;;;;4996784;28;92936;-74
2022/03/25 00:22:12;;;;;;;57.70;29.90;;;;;;;;;;5003122;28;92447;-74
2022/03/25 00:24:38;;;;;;;53.30;30.98;;;;;;;;;;4999843;28;92802;-74
2022/03/25 00:27:05;;;;;;;52.33;29.95;;;;;;;;;;4998892;28;95244;-75
2022/03/25 00:29:33;;;;;;;62.90;33.00;;;;;;;;;;4998374;28;94562;-74
2022/03/25 00:32:00;;;;;;;60.33;32.92;;;;;;;;;;4998496;28;98292;-75
2022/03/25 00:34:27;;;;;;;60.70;33.70;;;;;;;;;;4999589;28;93052;-75
2022/03/25 00:36:53;;;;;;;56.50;33.15;;;;;;;;;;4999945;28;92184;-72
2022/03/25 00:39:19;;;;;;;61.33;35.22;;;;;;;;;;4998743;28;94529;-73
2022/03/25 00:41:47;;;;;;;63.08;35.08;;;;;;;;;;5006038;28;96576;-74
2022/03/25 00:44:14;;;;;;;69.68;34.17;;;;;;;;;;5011889;28;92369;-74
2022/03/25 00:46:41;;;;;;;66.55;35.35;;;;;;;;;;5005389;28;95354;-73
2022/03/25 00:49:07;;;;;;;63.97;35.90;;;;;;;;;;5006070;28;92754;-73
2022/03/25 00:51:34;;;;;;;60.10;35.80;;;;;;;;;;5008121;28;93060;-73
2022/03/25 00:54:03;;;;;;;68.22;36.65;;;;;;;;;;5000629;28;97455;-75
2022/03/25 00:56:29;;;;;;;67.32;38.92;;;;;;;;;;4998518;28;93890;-73
2022/03/25 00:58:57;;;;;;;64.80;37.90;;;;;;;;;;4947915;28;95122;-73
2022/03/25 01:01:25;;;;;;;73.68;37.22;;;;;;;;;;4999216;28;93138;-73
2022/03/25 01:03:52;;;;;;;73.95;40.10;;;;;;;;;;4997898;28;92261;-74
2022/03/25 01:06:21;;;;;;;73.28;39.00;;;;;;;;;;5007997;28;93972;-74
2022/03/25 01:08:47;;;;;;;69.15;38.42;;;;;;;;;;4998277;28;93470;-73
2022/03/25 01:11:14;;;;;;;72.95;39.70;;;;;;;;;;4998191;28;93497;-73
2022/03/25 01:13:40;;;;;;;70.35;38.45;;;;;;;;;;4998867;28;93600;-74
2022/03/25 01:16:07;;;;;;;75.35;39.17;;;;;;;;;;4998973;28;92174;-74
2022/03/25 01:18:36;;;;;;;67.50;39.05;;;;;;;;;;4997567;28;94730;-75
2022/03/25 01:21:02;;;;;;;65.55;37.90;;;;;;;;;;5002513;28;94172;-73
2022/03/25 01:23:29;;;;;;;71.20;38.25;;;;;;;;;;4998883;28;94175;-73
2022/03/25 01:25:56;;;;;;;66.28;39.00;;;;;;;;;;4997935;28;94500;-73
2022/03/25 01:28:23;;;;;;;68.45;37.22;;;;;;;;;;5001651;28;93303;-74
2022/03/25 01:30:50;;;;;;;69.30;37.00;;;;;;;;;;4997345;28;95160;-72
2022/03/25 01:33:17;;;;;;;66.25;38.22;;;;;;;;;;4996768;28;94628;-74
2022/03/25 01:35:45;;;;;;;75.22;39.72;;;;;;;;;;5014675;28;91550;-73
2022/03/25 01:38:11;;;;;;;72.30;39.22;;;;;;;;;;4998536;28;93115;-73
2022/03/25 01:40:38;;;;;;;72.25;40.00;;;;;;;;;;4997392;28;96174;-73
2022/03/25 01:43:05;;;;;;;73.03;40.22;;;;;;;;;;4997078;28;94543;-72
2022/03/25 01:45:34;;;;;;;81.05;41.70;;;;;;;;;;4998081;28;96337;-73
2022/03/25 01:48:01;;;;;;;76.13;42.03;;;;;;;;;;4996977;28;93987;-72
2022/03/25 01:50:29;;;;;;;82.85;43.67;;;;;;;;;;4999602;28;92407;-73
2022/03/25 01:52:56;;;;;;;82.53;42.65;;;;;;;;;;4997129;28;96671;-73
2022/03/25 01:55:26;;;;;;;80.30;43.85;;;;;;;;;;5014068;28;92340;-72
2022/03/25 01:57:57;;;;;;;75.22;42.42;;;;;;;;;;4998098;28;92938;-72
2022/03/25 02:00:25;;;;;;;82.82;45.17;;;;;;;;;;4998567;28;93000;-73
2022/03/25 02:02:51;;;;;;;90.00;45.83;;;;;;;;;;4997920;28;92181;-72
2022/03/25 02:05:19;;;;;;;88.38;45.72;;;;;;;;;;4998108;28;93396;-72
2022/03/25 02:07:46;;;;;;;86.20;46.00;;;;;;;;;;4996305;28;96088;-72
2022/03/25 02:10:16;;;;;;;87.22;45.70;;;;;;;;;;4999922;28;92749;-72
2022/03/25 02:12:43;;;;;;;91.20;48.72;;;;;;;;;;4996800;28;95865;-73
2022/03/25 02:15:10;;;;;;;83.80;46.72;;;;;;;;;;5002274;28;93108;-71
2022/03/25 02:17:42;;;;;;;95.78;49.30;;;;;;;;;;5002669;28;95226;-72
2022/03/25 02:20:10;;;;;;;94.95;47.63;;;;;;;;;;4996404;28;95636;-72
2022/03/25 02:22:38;;;;;;;89.05;47.70;;;;;;;;;;4995127;28;92527;-72
2022/03/25 02:25:08;;;;;;;102.93;49.53;;;;;;;;;;4979659;28;93957;-71
2022/03/25 02:27:38;;;;;;;91.32;49.22;;;;;;;;;;4995287;28;96864;-71
2022/03/25 02:30:06;;;;;;;90.28;48.03;;;;;;;;;;4995069;28;92408;-72
2022/03/25 02:32:34;;;;;;;87.63;49.10;;;;;;;;;;4980543;28;95665;-72
2022/03/25 02:35:00;;;;;;;98.63;51.08;;;;;;;;;;4962558;28;92479;-73
2022/03/25 02:37:27;;;;;;;89.88;49.40;;;;;;;;;;4996042;28;92625;-73
2022/03/25 02:39:53;;;;;;;96.95;49.58;;;;;;;;;;4978624;28;94560;-72
2022/03/25 02:42:20;;;;;;;93.75;50.03;;;;;;;;;;4995103;28;92373;-73
2022/03/25 02:44:48;;;;;;;97.32;50.97;;;;;;;;;;4995203;28;92892;-74
2022/03/25 02:47:15;;;;;;;98.78;51.38;;;;;;;;;;4995142;28;95098;-73
2022/03/25 02:49:42;;;;;;;92.82;50.35;;;;;;;;;;4995151;28;91666;-73
2022/03/25 02:52:08;;;;;;;98.82;51.42;;;;;;;;;;4977252;28;93772;-74
2022/03/25 02:54:35;;;;;;;89.40;49.83;;;;;;;;;;4998355;28;93728;-73
2022/03/25 02:57:02;;;;;;;100.82;51.22;;;;;;;;;;4991852;28;94964;-73
2022/03/25 02:59:28;;;;;;;105.45;52.65;;;;;;;;;;4995764;28;93672;-72
2022/03/25 03:01:55;;;;;;;105.65;51.55;;;;;;;;;;4996900;28;92228;-73
2022/03/25 03:04:21;;;;;;;96.22;51.35;;;;;;;;;;4996182;28;93436;-73
2022/03/25 03:06:48;;;;;;;98.97;52.13;;;;;;;;;;4996818;28;93532;-73
2022/03/25 03:09:14;;;;;;;97.85;53.65;;;;;;;;;;4997181;28;92225;-72
2022/03/25 03:11:41;;;;;;;106.65;54.72;;;;;;;;;;4997490;28;92677;-72
2022/03/25 03:14:08;;;;;;;104.82;54.17;;;;;;;;;;4997457;28;92495;-73
2022/03/25 03:16:34;;;;;;;107.78;54.85;;;;;;;;;;4999586;28;92328;-72
2022/03/25 03:19:07;;;;;;;113.28;53.90;;;;;;;;;;4996655;28;93301;-72
2022/03/25 03:21:35;;;;;;;117.55;55.00;;;;;;;;;;4995479;28;94567;-72
2022/03/25 03:24:02;;;;;;;115.55;57.03;;;;;;;;;;4997289;28;95904;-72
2022/03/25 03:26:28;;;;;;;109.50;55.45;;;;;;;;;;4998073;28;94459;-72
2022/03/25 03:28:55;;;;;;;124.93;58.53;;;;;;;;;;4998974;28;92208;-72
2022/03/25 03:31:21;;;;;;;113.53;57.17;;;;;;;;;;5001864;28;93064;-72
2022/03/25 03:33:47;;;;;;;108.68;55.95;;;;;;;;;;4996456;28;92974;-72
2022/03/25 03:36:14;;;;;;;116.30;57.38;;;;;;;;;;4996822;28;92403;-72
2022/03/25 03:38:41;;;;;;;109.35;56.08;;;;;;;;;;5000232;28;92826;-72
2022/03/25 03:41:07;;;;;;;113.95;57.03;;;;;;;;;;4996771;28;92296;-71
2022/03/25 03:43:34;;;;;;;116.03;55.80;;;;;;;;;;4995450;28;94563;-72
2022/03/25 03:46:00;;;;;;;112.20;56.53;;;;;;;;;;4994387;28;96206;-73
2022/03/25 03:48:27;;;;;;;110.90;56.22;;;;;;;;;;4996483;28;92829;-72
2022/03/25 03:50:53;;;;;;;109.68;55.72;;;;;;;;;;4996834;28;93004;-71
2022/03/25 03:53:20;;;;;;;110.25;56.53;;;;;;;;;;4996709;28;94071;-71
2022/03/25 03:55:46;;;;;;;108.50;54.55;;;;;;;;;;4995702;28;92393;-73
2022/03/25 03:58:31;;;;;;;115.35;56.17;;;;;;;;;;4999371;28;93361;-73
2022/03/25 04:00:58;;;;;;;115.80;56.95;;;;;;;;;;4995309;28;92380;-75
2022/03/25 04:03:31;;;;;;;110.05;54.22;;;;;;;;;;4996997;28;92997;-75
2022/03/25 04:05:57;;;;;;;120.78;54.80;;;;;;;;;;4996344;28;93729;-75
2022/03/25 04:08:24;;;;;;;108.40;54.15;;;;;;;;;;4996312;28;92449;-74
2022/03/25 04:10:50;;;;;;;101.05;53.30;;;;;;;;;;4994938;28;94697;-74
2022/03/25 04:13:17;;;;;;;111.82;55.00;;;;;;;;;;4996087;28;93164;-73
2022/03/25 04:15:44;;;;;;;101.90;52.65;;;;;;;;;;4995435;28;92293;-74
2022/03/25 04:18:10;;;;;;;107.60;54.70;;;;;;;;;;4996277;28;93606;-75
2022/03/25 04:20:36;;;;;;;121.80;57.00;;;;;;;;;;4999498;28;93431;-73
2022/03/25 04:23:03;;;;;;;117.68;57.33;;;;;;;;;;4996255;28;93465;-74
2022/03/25 04:25:30;;;;;;;110.65;55.90;;;;;;;;;;4996158;28;93679;-74
2022/03/25 04:27:57;;;;;;;116.10;56.55;;;;;;;;;;4996173;28;91767;-74
2022/03/25 04:30:30;;;;;;;107.93;53.22;;;;;;;;;;4996142;28;92292;-74
2022/03/25 04:32:57;;;;;;;115.68;54.20;;;;;;;;;;4997177;28;92989;-74
2022/03/25 04:35:27;;;;;;;102.10;51.53;;;;;;;;;;5004027;28;94769;-74
2022/03/25 04:37:54;;;;;;;97.60;50.42;;;;;;;;;;4996180;28;95765;-74
2022/03/25 04:40:22;;;;;;;90.85;48.38;;;;;;;;;;4995410;28;93657;-75
2022/03/25 04:42:49;;;;;;;94.88;48.58;;;;;;;;;;4999052;28;92295;-75
2022/03/25 04:45:15;;;;;;;86.20;46.13;;;;;;;;;;4995319;28;93926;-74
2022/03/25 04:47:42;;;;;;;91.88;47.10;;;;;;;;;;4995756;28;92466;-74
2022/03/25 04:50:09;;;;;;;88.82;46.83;;;;;;;;;;4995724;28;93559;-74
2022/03/25 04:52:35;;;;;;;93.32;46.80;;;;;;;;;;4995367;28;92353;-73
2022/03/25 04:55:03;;;;;;;93.20;47.72;;;;;;;;;;4995573;28;92324;-75
2022/03/25 04:57:29;;;;;;;87.53;43.60;;;;;;;;;;4995713;28;94562;-74
2022/03/25 04:59:55;;;;;;;80.90;41.28;;;;;;;;;;4994030;28;95286;-74
2022/03/25 05:02:22;;;;;;;82.95;44.08;;;;;;;;;;4995685;28;92380;-74
2022/03/25 05:04:49;;;;;;;87.97;44.42;;;;;;;;;;4998804;28;92383;-74
2022/03/25 05:07:16;;;;;;;89.70;44.45;;;;;;;;;;4998021;28;92627;-74
2022/03/25 05:09:42;;;;;;;88.75;45.90;;;;;;;;;;4998623;28;94089;-74
2022/03/25 05:12:09;;;;;;;92.13;47.22;;;;;;;;;;4998974;28;93848;-74
2022/03/25 05:14:36;;;;;;;99.85;50.63;;;;;;;;;;4999033;28;92371;-74
2022/03/25 05:17:03;;;;;;;109.22;52.03;;;;;;;;;;4999747;28;93491;-75
2022/03/25 05:19:29;;;;;;;118.13;54.80;;;;;;;;;;4998900;28;93374;-75
2022/03/25 05:21:56;;;;;;;115.55;50.78;;;;;;;;;;4999007;28;92180;-73
2022/03/25 05:24:22;;;;;;;111.18;54.65;;;;;;;;;;4996765;28;94851;-75
2022/03/25 05:26:50;;;;;;;109.07;53.47;;;;;;;;;;5001702;28;92323;-75
2022/03/25 05:29:16;;;;;;;117.75;55.88;;;;;;;;;;4997207;28;93100;-75
2022/03/25 05:31:43;;;;;;;117.68;54.60;;;;;;;;;;4998872;28;93172;-74
2022/03/25 05:34:09;;;;;;;128.23;58.58;;;;;;;;;;4998804;28;92287;-74
2022/03/25 05:36:36;;;;;;;125.82;59.67;;;;;;;;;;5000338;28;93486;-74
2022/03/25 05:39:03;;;;;;;128.50;59.50;;;;;;;;;;5004153;28;92171;-72
2022/03/25 05:41:32;;;;;;;126.80;58.22;;;;;;;;;;4999774;28;91606;-72
2022/03/25 05:44:04;;;;;;;131.23;59.95;;;;;;;;;;4998053;28;93318;-73
2022/03/25 05:46:30;;;;;;;129.82;60.55;;;;;;;;;;4997343;28;93123;-74
2022/03/25 05:48:57;;;;;;;140.07;60.40;;;;;;;;;;5000028;28;94668;-73
2022/03/25 05:51:23;;;;;;;129.23;57.83;;;;;;;;;;4997593;28;93558;-73
2022/03/25 05:53:50;;;;;;;128.05;58.28;;;;;;;;;;4997511;28;92298;-74
2022/03/25 05:56:16;;;;;;;112.75;54.03;;;;;;;;;;4998502;28;92944;-74
2022/03/25 05:58:43;;;;;;;101.53;52.33;;;;;;;;;;4998290;28;92413;-74
2022/03/25 06:01:13;;;;;;;95.93;49.65;;;;;;;;;;4998450;28;92300;-74
2022/03/25 06:03:39;;;;;;;95.07;47.58;;;;;;;;;;4998117;28;93410;-75
2022/03/25 06:06:06;;;;;;;97.45;47.20;;;;;;;;;;4998522;28;93026;-75
2022/03/25 06:08:33;;;;;;;96.80;45.63;;;;;;;;;;5001401;28;92469;-74
2022/03/25 06:10:59;;;;;;;84.95;45.60;;;;;;;;;;4998251;28;93204;-74
2022/03/25 06:13:26;;;;;;;93.85;47.78;;;;;;;;;;4996443;28;94723;-76
2022/03/25 06:15:53;;;;;;;98.88;49.25;;;;;;;;;;4997947;28;96028;-74
2022/03/25 06:18:19;;;;;;;90.20;47.65;;;;;;;;;;4997188;28;93036;-74
2022/03/25 06:20:45;;;;;;;101.05;49.20;;;;;;;;;;4996495;28;92380;-74
2022/03/25 06:23:13;;;;;;;94.35;49.05;;;;;;;;;;4997904;28;93602;-75
2022/03/25 06:25:40;;;;;;;98.70;50.90;;;;;;;;;;4998112;28;93982;-73
2022/03/25 06:28:07;;;;;;;121.60;57.88;;;;;;;;;;5006050;28;92154;-74
2022/03/25 06:30:35;;;;;;;132.35;62.47;;;;;;;;;;5011005;28;92414;-74
2022/03/25 06:33:03;;;;;;;117.88;59.97;;;;;;;;;;5004119;28;92323;-74
2022/03/25 06:35:30;;;;;;;123.53;60.42;;;;;;;;;;5004330;28;93572;-72
2022/03/25 06:37:57;;;;;;;118.43;60.55;;;;;;;;;;5003585;28;95866;-71
2022/03/25 06:40:24;;;;;;;120.80;60.92;;;;;;;;;;5003773;28;92356;-71
2022/03/25 06:42:56;;;;;;;119.63;60.88;;;;;;;;;;4999857;28;93002;-71
2022/03/25 06:45:24;;;;;;;121.90;63.38;;;;;;;;;;4999828;28;92260;-73
2022/03/25 06:47:50;;;;;;;116.15;61.58;;;;;;;;;;4996735;28;92391;-73
2022/03/25 06:50:18;;;;;;;117.78;62.53;;;;;;;;;;4997698;28;93458;-72
2022/03/25 06:52:45;;;;;;;117.45;63.40;;;;;;;;;;5004910;28;93287;-73
2022/03/25 06:55:13;;;;;;;111.20;62.80;;;;;;;;;;4999414;28;93608;-72
2022/03/25 06:57:46;;;;;;;113.63;63.35;;;;;;;;;;4997474;28;93449;-73
2022/03/25 07:00:12;;;;;;;114.68;64.00;;;;;;;;;;4997356;28;92303;-75
2022/03/25 07:02:39;;;;;;;110.90;62.72;;;;;;;;;;4995882;28;94687;-73
2022/03/25 07:05:06;;;;;;;111.25;64.88;;;;;;;;;;4997218;28;93652;-73
2022/03/25 07:07:35;;;;;;;115.70;63.38;;;;;;;;;;4997150;28;92399;-73
2022/03/25 07:10:01;;;;;;;113.63;63.47;;;;;;;;;;4997101;28;92904;-72
2022/03/25 07:12:28;;;;;;;119.40;62.95;;;;;;;;;;4996976;28;93513;-73
2022/03/25 07:14:54;;;;;;;121.40;64.10;;;;;;;;;;4999275;28;92515;-73
2022/03/25 07:17:20;;;;;;;106.80;62.28;;;;;;;;;;4996796;28;94282;-73
2022/03/25 07:19:47;;;;;;;109.93;63.58;;;;;;;;;;4997601;28;91554;-74
2022/03/25 07:22:13;;;;;;;115.32;64.13;;;;;;;;;;4996930;28;92379;-72
2022/03/25 07:24:40;;;;;;;114.05;63.58;;;;;;;;;;4996805;28;93701;-74
2022/03/25 07:27:06;;;;;;;109.15;62.75;;;;;;;;;;4995097;28;94620;-73
2022/03/25 07:29:33;;;;;;;112.85;62.70;;;;;;;;;;4996412;28;94193;-71
2022/03/25 07:32:01;;;;;;;113.05;62.63;;;;;;;;;;4996780;28;93125;-70
2022/03/25 07:34:27;;;;;;;109.30;63.65;;;;;;;;;;4996531;28;92383;-71
2022/03/25 07:36:54;;;;;;;106.72;63.63;;;;;;;;;;4999773;28;92725;-71
2022/03/25 07:39:20;;;;;;;112.20;63.20;;;;;;;;;;4996752;28;92423;-71
2022/03/25 07:41:46;;;;;;;107.70;63.95;;;;;;;;;;4996446;28;93575;-71
2022/03/25 07:44:13;;;;;;;112.28;65.05;;;;;;;;;;4995532;28;93797;-70
2022/03/25 07:46:39;;;;;;;108.70;62.00;;;;;;;;;;4996242;28;92387;-73
2022/03/25 07:49:06;;;;;;;106.97;63.15;;;;;;;;;;4998904;28;92187;-72
2022/03/25 07:51:32;;;;;;;106.35;63.17;;;;;;;;;;4997101;28;97096;-71
2022/03/25 07:53:58;;;;;;;103.00;61.08;;;;;;;;;;4996259;28;92383;-71
2022/03/25 07:56:25;;;;;;;111.70;61.75;;;;;;;;;;4996132;28;92989;-70
2022/03/25 07:58:51;;;;;;;95.75;58.50;;;;;;;;;;4998760;28;93731;-71
2022/03/25 08:01:18;;;;;;;102.75;60.47;;;;;;;;;;4996151;28;94014;-70
2022/03/25 08:03:44;;;;;;;97.93;58.65;;;;;;;;;;4996414;28;93654;-71
2022/03/25 08:06:14;;;;;;;94.10;58.45;;;;;;;;;;4996461;28;92382;-70
2022/03/25 08:08:40;;;;;;;96.47;58.75;;;;;;;;;;4996825;28;93440;-70
2022/03/25 08:11:08;;;;;;;91.70;56.08;;;;;;;;;;4995474;28;92346;-71
2022/03/25 08:13:34;;;;;;;96.60;59.05;;;;;;;;;;4995358;28;92326;-71
2022/03/25 08:16:01;;;;;;;99.50;59.42;;;;;;;;;;4994697;28;94725;-72
2022/03/25 08:18:27;;;;;;;96.45;56.90;;;;;;;;;;4999530;28;93077;-71
2022/03/25 08:20:55;;;;;;;94.03;56.80;;;;;;;;;;4996257;28;93584;-72
2022/03/25 08:29:05;;;;;;;91.97;54.70;;;;;;;;;;4995986;28;93393;-73
2022/03/25 08:31:46;;;;;;;86.68;53.70;;;;;;;;;;4994647;28;93555;-73
2022/03/25 08:34:16;;;;;;;84.75;53.58;;;;;;;;;;4996082;28;91568;-72
2022/03/25 08:36:44;;;;;;;85.22;54.05;;;;;;;;;;4995917;28;92653;-73
2022/03/25 08:39:11;;;;;;;86.30;54.30;;;;;;;;;;4995942;28;93652;-72
2022/03/25 08:41:37;;;;;;;87.68;54.03;;;;;;;;;;4999158;28;94800;-71
2022/03/25 08:44:04;;;;;;;83.63;54.88;;;;;;;;;;4997884;28;94997;-74
2022/03/25 08:46:32;;;;;;;83.10;54.90;;;;;;;;;;4998871;28;92163;-71
2022/03/25 08:48:58;;;;;;;85.88;53.70;;;;;;;;;;4999476;28;92738;-72
2022/03/25 08:51:24;;;;;;;93.10;53.47;;;;;;;;;;4999177;28;93077;-72
2022/03/25 08:53:51;;;;;;;78.72;52.20;;;;;;;;;;4997873;28;93430;-73
2022/03/25 08:56:19;;;;;;;88.05;53.60;;;;;;;;;;4999321;28;93523;-72
2022/03/25 08:58:45;;;;;;;83.03;53.40;;;;;;;;;;4999111;28;93215;-72
2022/03/25 09:01:12;;;;;;;83.68;50.80;;;;;;;;;;4998803;28;92336;-73
2022/03/25 09:03:39;;;;;;;79.75;53.85;;;;;;;;;;5001856;28;95272;-72
2022/03/25 09:06:05;;;;;;;86.13;51.75;;;;;;;;;;4997666;28;95721;-73
2022/03/25 09:08:33;;;;;;;78.00;48.80;;;;;;;;;;4999110;28;95623;-73
2022/03/25 09:10:59;;;;;;;81.55;48.58;;;;;;;;;;4997992;28;93488;-73
2022/03/25 09:13:26;;;;;;;65.22;40.70;;;;;;;;;;4999149;28;92164;-73
2022/03/25 09:15:52;;;;;;;86.63;47.22;;;;;;;;;;4998438;28;94893;-73
2022/03/25 09:18:19;;;;;;;76.18;47.78;;;;;;;;;;4998771;28;94030;-72
2022/03/25 09:20:45;;;;;;;76.03;49.65;;;;;;;;;;4998860;28;92421;-72
2022/03/25 09:23:12;;;;;;;78.07;48.38;;;;;;;;;;4999254;28;93522;-74
2022/03/25 09:25:39;;;;;;;70.28;46.53;;;;;;;;;;5001386;28;94498;-74
2022/03/25 09:28:05;;;;;;;65.53;44.58;;;;;;;;;;4998668;28;93560;-73
2022/03/25 09:30:32;;;;;;;73.30;47.72;;;;;;;;;;4996305;28;95931;-72
2022/03/25 09:33:01;;;;;;;84.78;45.90;;;;;;;;;;4998761;28;92302;-74
2022/03/25 09:35:32;;;;;;;75.50;43.55;;;;;;;;;;4998509;28;92420;-73
2022/03/25 09:37:59;;;;;;;79.40;45.65;;;;;;;;;;4998571;28;93222;-74
2022/03/25 09:40:26;;;;;;;68.22;42.13;;;;;;;;;;4998863;28;92383;-73
2022/03/25 09:42:55;;;;;;;66.85;43.20;;;;;;;;;;4998229;28;93386;-73
2022/03/25 09:45:23;;;;;;;72.40;40.75;;;;;;;;;;4998160;28;93387;-69
2022/03/25 09:47:50;;;;;;;66.50;39.72;;;;;;;;;;5002023;28;91414;-69
2022/03/25 09:50:17;;;;;;;63.50;39.38;;;;;;;;;;4998428;28;93370;-73
2022/03/25 09:52:44;;;;;;;85.25;40.95;;;;;;;;;;4997211;28;92246;-72
2022/03/25 09:55:31;;;;;;;66.28;41.63;;;;;;;;;;4996621;28;94721;-74
2022/03/25 09:57:57;;;;;;;75.00;42.33;;;;;;;;;;5002083;28;93710;-73
2022/03/25 10:00:25;;;;;;;65.85;41.15;;;;;;;;;;5002293;28;92314;-74
2022/03/25 10:02:51;;;;;;;69.30;40.67;;;;;;;;;;4998720;28;93846;-74
2022/03/25 10:05:19;;;;;;;62.88;39.72;;;;;;;;;;4998134;28;93096;-73
2022/03/25 10:07:47;;;;;;;66.07;41.90;;;;;;;;;;4998119;28;92256;-74
2022/03/25 10:10:15;;;;;;;71.10;41.95;;;;;;;;;;5000438;28;94359;-72
2022/03/25 10:12:43;;;;;;;88.57;42.63;;;;;;;;;;4997415;28;91858;-74
2022/03/25 10:15:12;;;;;;;61.00;40.05;;;;;;;;;;4997906;28;93253;-76
2022/03/25 10:17:48;;;;;;;65.30;41.10;;;;;;;;;;4998013;28;93844;-75
2022/03/25 10:20:15;;;;;;;72.28;42.13;;;;;;;;;;4996200;28;95040;-75
2022/03/25 10:22:56;;;;;;;88.45;60.33;;;;;;;;;;4997352;28;94950;-75
2022/03/25 10:25:39;;;;;;;69.17;42.27;;;;;;;;;;4997682;28;94388;-74
2022/03/25 10:28:26;;;;;;;57.17;39.80;;;;;;;;;;4997980;28;92444;-75
2022/03/25 10:30:53;;;;;;;59.63;40.30;;;;;;;;;;5000693;28;93498;-75
2022/03/25 10:33:21;;;;;;;66.93;42.58;;;;;;;;;;4997954;28;92186;-75
2022/03/25 10:35:55;;;;;;;60.55;39.55;;;;;;;;;;4997563;28;93992;-75
2022/03/25 10:38:22;;;;;;;61.78;40.65;;;;;;;;;;4997938;28;92912;-73
2022/03/25 10:40:52;;;;;;;66.32;42.70;;;;;;;;;;4997634;28;92246;-75
2022/03/25 10:43:19;;;;;;;63.03;40.97;;;;;;;;;;4997459;28;92789;-75
2022/03/25 10:45:46;;;;;;;61.50;40.60;;;;;;;;;;4995428;28;96187;-73
2022/03/25 10:48:15;;;;;;;72.15;42.80;;;;;;;;;;4997479;28;92275;-74
2022/03/25 10:51:00;;;;;;;67.38;40.90;;;;;;;;;;4997769;28;93379;-75
2022/03/25 10:53:27;;;;;;;69.97;41.75;;;;;;;;;;5000702;28;92887;-73
2022/03/25 10:55:57;;;;;;;71.38;41.55;;;;;;;;;;4997298;28;93576;-74
2022/03/25 10:58:24;;;;;;;66.05;40.83;;;;;;;;;;4996112;28;96643;-74
2022/03/25 11:00:51;;;;;;;72.75;41.03;;;;;;;;;;4997219;28;92345;-74
2022/03/25 11:03:18;;;;;;;65.15;40.20;;;;;;;;;;4996458;28;94572;-74
2022/03/25 11:05:44;;;;;;;78.15;40.88;;;;;;;;;;4997060;28;93020;-73
2022/03/25 11:08:11;;;;;;;65.57;40.22;;;;;;;;;;4997199;28;92311;-75
2022/03/25 11:10:38;;;;;;;61.45;40.88;;;;;;;;;;4995011;28;94751;-71
2022/03/25 11:13:05;;;;;;;71.63;42.47;;;;;;;;;;4995609;28;94738;-73
2022/03/25 11:15:32;;;;;;;74.60;40.15;;;;;;;;;;5000277;28;92195;-73
2022/03/25 11:17:59;;;;;;;81.65;40.95;;;;;;;;;;4996877;28;94113;-73
2022/03/25 11:20:26;;;;;;;60.88;41.78;;;;;;;;;;4997226;28;92489;-74
2022/03/25 11:23:16;;;;;;;60.78;39.45;;;;;;;;;;4996951;28;93412;-74
2022/03/25 11:25:48;;;;;;;71.18;40.53;;;;;;;;;;4997038;28;93571;-74
2022/03/25 11:28:20;;;;;;;68.90;39.97;;;;;;;;;;4997466;28;91601;-73
2022/03/25 11:31:07;;;;;;;58.67;39.78;;;;;;;;;;4996879;28;92735;-72
2022/03/25 11:33:53;;;;;;;68.85;40.00;;;;;;;;;;4996246;28;93467;-73
2022/03/25 11:36:19;;;;;;;70.68;40.60;;;;;;;;;;4994059;28;94743;-74
2022/03/25 11:38:45;;;;;;;61.92;40.80;;;;;;;;;;4999885;28;95254;-74
2022/03/25 11:41:25;;;;;;;59.78;40.60;;;;;;;;;;4996917;28;92264;-73
2022/03/25 11:44:16;;;;;;;59.28;41.15;;;;;;;;;;4996736;28;93472;-72
2022/03/25 11:47:05;;;;;;;66.15;41.08;;;;;;;;;;4996301;28;92285;-73
2022/03/25 11:49:33;;;;;;;61.78;41.70;;;;;;;;;;4991018;28;92421;-73
2022/03/25 11:52:18;;;;;;;67.65;42.33;;;;;;;;;;5000231;28;92636;-73
2022/03/25 11:54:45;;;;;;;61.42;41.33;;;;;;;;;;5001994;28;93745;-74
2022/03/25 11:57:31;;;;;;;59.90;40.05;;;;;;;;;;5000180;28;92341;-72
2022/03/25 12:00:03;;;;;;;67.15;41.88;;;;;;;;;;5002184;28;93725;-73
2022/03/25 12:02:32;;;;;;;63.03;41.42;;;;;;;;;;5003557;28;95559;-73
2022/03/25 12:05:00;;;;;;;67.30;42.00;;;;;;;;;;4999442;28;95238;-73
2022/03/25 12:07:27;;;;;;;65.85;40.92;;;;;;;;;;4998852;28;93028;-72
2022/03/25 12:09:53;;;;;;;61.30;40.65;;;;;;;;;;4997608;28;93045;-73
2022/03/25 12:12:39;;;;;;;57.42;40.13;;;;;;;;;;4997296;28;93533;-73
2022/03/25 12:15:07;;;;;;;65.00;40.55;;;;;;;;;;4996532;28;93604;-73
2022/03/25 12:17:34;;;;;;;62.45;42.08;;;;;;;;;;4996169;28;92346;-72
2022/03/25 12:20:01;;;;;;;63.25;39.55;;;;;;;;;;4996977;28;93230;-72
2022/03/25 12:22:29;;;;;;;85.53;40.30;;;;;;;;;;4996349;28;93473;-71
2022/03/25 12:24:57;;;;;;;62.55;38.17;;;;;;;;;;4998908;28;92173;-74
2022/03/25 12:27:24;;;;;;;61.17;38.08;;;;;;;;;;4994423;28;96404;-73
2022/03/25 12:29:52;;;;;;;70.00;38.67;;;;;;;;;;4995953;28;92449;-73
2022/03/25 12:32:19;;;;;;;59.10;37.78;;;;;;;;;;4996150;28;93000;-75
2022/03/25 12:34:58;;;;;;;58.05;39.50;;;;;;;;;;4996151;28;93878;-74
2022/03/25 12:37:28;;;;;;;58.72;40.10;;;;;;;;;;4996226;28;92385;-72
2022/03/25 12:39:55;;;;;;;58.00;38.85;;;;;;;;;;4996098;28;92644;-73
2022/03/25 12:42:21;;;;;;;66.28;39.70;;;;;;;;;;4995424;28;93636;-75
2022/03/25 12:44:54;;;;;;;65.32;40.38;;;;;;;;;;4999323;28;91417;-74
2022/03/25 12:47:30;;;;;;;68.85;41.88;;;;;;;;;;4995694;28;93093;-73
2022/03/25 12:49:57;;;;;;;65.13;40.15;;;;;;;;;;4995853;28;92357;-73
2022/03/25 12:52:23;;;;;;;59.35;39.47;;;;;;;;;;4994353;28;94648;-73
2022/03/25 12:54:50;;;;;;;55.47;38.70;;;;;;;;;;4994163;28;96679;-74
2022/03/25 12:57:16;;;;;;;76.65;39.40;;;;;;;;;;4995768;28;92132;-74
2022/03/25 12:59:54;;;;;;;68.88;38.83;;;;;;;;;;4995786;28;93301;-74
2022/03/25 13:02:28;;;;;;;57.53;38.45;;;;;;;;;;4995265;28;95626;-73
2022/03/25 13:05:16;;;;;;;65.22;37.13;;;;;;;;;;4995678;28;92309;-74
2022/03/25 13:07:50;;;;;;;54.30;37.25;;;;;;;;;;4998618;28;95925;-74
2022/03/25 13:10:16;;;;;;;62.35;38.05;;;;;;;;;;4995862;28;91669;-73
2022/03/25 13:12:44;;;;;;;58.80;37.88;;;;;;;;;;4995617;28;92426;-74
2022/03/25 13:15:12;;;;;;;53.80;36.22;;;;;;;;;;4995552;28;93230;-73
2022/03/25 13:17:43;;;;;;;59.50;36.80;;;;;;;;;;4994252;28;95773;-74
2022/03/25 13:20:20;;;;;;;55.57;37.27;;;;;;;;;;4995316;28;96357;-74
2022/03/25 13:22:54;;;;;;;61.75;36.50;;;;;;;;;;4995151;28;93829;-74
2022/03/25 13:25:24;;;;;;;53.03;36.65;;;;;;;;;;4995280;28;92371;-74
2022/03/25 13:27:50;;;;;;;54.38;35.72;;;;;;;;;;4997064;28;93143;-74
2022/03/25 13:30:17;;;;;;;53.22;34.38;;;;;;;;;;5001573;28;93478;-73
2022/03/25 13:32:43;;;;;;;60.05;35.63;;;;;;;;;;4998570;28;92743;-73
2022/03/25 13:35:12;;;;;;;52.10;32.38;;;;;;;;;;4999015;28;92868;-73
2022/03/25 13:37:39;;;;;;;70.25;34.53;;;;;;;;;;4998796;28;92703;-73
2022/03/25 13:40:25;;;;;;;59.03;35.03;;;;;;;;;;4998579;28;93679;-73
2022/03/25 13:42:56;;;;;;;59.47;33.70;;;;;;;;;;4996679;28;95393;-74
2022/03/25 13:45:22;;;;;;;55.85;32.65;;;;;;;;;;4998169;28;92569;-75
2022/03/25 13:47:59;;;;;;;60.78;31.65;;;;;;;;;;4998483;28;92603;-73
2022/03/25 13:50:26;;;;;;;60.38;31.10;;;;;;;;;;4998284;28;93742;-72
2022/03/25 13:52:56;;;;;;;58.72;30.52;;;;;;;;;;4999844;28;92422;-72
2022/03/25 13:55:30;;;;;;;53.97;34.25;;;;;;;;;;4997144;28;92335;-72
2022/03/25 13:57:57;;;;;;;61.38;33.47;;;;;;;;;;4997629;28;92371;-73
2022/03/25 14:00:31;;;;;;;55.17;31.92;;;;;;;;;;4998301;28;92741;-73
2022/03/25 14:02:59;;;;;;;51.35;32.13;;;;;;;;;;4997147;28;93749;-73
2022/03/25 14:05:25;;;;;;;70.20;33.80;;;;;;;;;;4997647;28;92216;-74
2022/03/25 14:07:53;;;;;;;60.97;33.35;;;;;;;;;;4995974;28;94683;-74
2022/03/25 14:10:19;;;;;;;58.95;33.65;;;;;;;;;;4997117;28;95277;-72
2022/03/25 14:12:54;;;;;;;49.90;33.28;;;;;;;;;;5000283;28;92215;-72
2022/03/25 14:15:23;;;;;;;59.50;31.80;;;;;;;;;;5001462;28;92774;-72
2022/03/25 14:17:54;;;;;;;50.20;31.58;;;;;;;;;;4993748;28;92346;-72
2022/03/25 14:20:27;;;;;;;54.97;30.73;;;;;;;;;;4997327;28;92896;-73
2022/03/25 14:22:54;;;;;;;59.65;32.10;;;;;;;;;;4996895;28;92857;-72
2022/03/25 14:25:22;;;;;;;46.45;30.23;;;;;;;;;;4998061;28;92561;-73